createdAt,value
2023-03-13T19:59:23.679Z,14.70
2023-03-13T20:01:50.896Z,15.20
2023-03-13T20:04:18.366Z,15.00
2023-03-13T20:06:45.861Z,14.50
2023-03-13T20:09:15.823Z,13.70
2023-03-13T20:11:43.682Z,13.30
2023-03-13T20:14:11.240Z,13.10
2023-03-13T20:16:39.032Z,13.00
2023-03-13T20:19:06.544Z,13.00
2023-03-13T20:21:36.101Z,12.90
2023-03-13T20:24:03.660Z,12.80
2023-03-13T20:26:31.061Z,12.80
2023-03-13T20:28:58.996Z,12.90
2023-03-13T20:31:28.657Z,12.80
2023-03-13T20:33:56.997Z,12.70
2023-03-13T20:36:24.765Z,12.80
2023-03-13T20:38:51.990Z,12.70
2023-03-13T20:41:25.206Z,12.70
2023-03-13T20:43:53.113Z,12.60
2023-03-13T20:46:20.759Z,12.60
2023-03-13T20:48:48.050Z,12.60
2023-03-13T20:51:15.609Z,12.50
2023-03-13T20:53:43.316Z,12.40
2023-03-13T20:56:11.664Z,12.40
2023-03-13T20:58:39.467Z,12.50
2023-03-13T21:01:07.410Z,12.50
2023-03-13T21:03:36.019Z,12.50
2023-03-13T21:06:15.760Z,12.60
2023-03-13T21:08:44.084Z,12.50
2023-03-13T21:11:16.711Z,12.40
2023-03-13T21:13:44.227Z,12.40
2023-03-13T21:16:13.200Z,12.30
2023-03-13T21:18:40.533Z,12.20
2023-03-13T21:21:10.840Z,12.30
2023-03-13T21:23:38.646Z,12.40
2023-03-13T21:26:06.392Z,12.40
2023-03-13T21:28:33.902Z,12.50
2023-03-13T21:31:08.697Z,12.50
2023-03-13T21:33:35.897Z,12.50
2023-03-13T21:36:03.122Z,12.60
2023-03-13T21:38:30.476Z,12.50
2023-03-13T21:40:58.536Z,12.40
2023-03-13T21:43:28.195Z,12.30
2023-03-13T21:45:59.647Z,12.20
2023-03-13T21:48:26.896Z,12.10
2023-03-13T21:50:54.313Z,12.00
2023-03-13T21:53:21.461Z,11.90
2023-03-13T21:55:52.358Z,11.90
2023-03-13T21:58:19.582Z,11.70
2023-03-13T22:00:46.676Z,11.60
2023-03-13T22:03:13.813Z,11.50
2023-03-13T22:05:44.658Z,11.50
2023-03-13T22:08:11.982Z,11.50
2023-03-13T22:10:39.843Z,11.60
2023-03-13T22:13:08.442Z,11.50
2023-03-13T22:15:35.642Z,11.40
2023-03-13T22:18:02.937Z,11.40
2023-03-13T22:20:30.049Z,11.30
2023-03-13T22:22:57.159Z,11.30
2023-03-13T22:25:24.217Z,11.20
2023-03-13T22:27:51.436Z,11.10
2023-03-13T22:30:18.681Z,11.00
2023-03-13T22:32:45.830Z,11.00
2023-03-13T22:35:13.005Z,11.00
2023-03-13T22:37:40.326Z,11.00
2023-03-13T22:40:08.275Z,10.90
2023-03-13T22:42:35.422Z,10.80
2023-03-13T22:45:02.646Z,10.80
2023-03-13T22:47:29.821Z,10.60
2023-03-13T22:49:56.992Z,10.60
2023-03-13T22:52:30.760Z,10.50
2023-03-13T22:54:58.381Z,10.60
2023-03-13T22:57:25.474Z,10.50
2023-03-13T22:59:53.935Z,10.50
2023-03-13T23:02:21.449Z,10.40
2023-03-13T23:04:48.629Z,10.50
2023-03-13T23:07:15.724Z,10.40
2023-03-13T23:09:43.069Z,10.40
2023-03-13T23:12:10.385Z,10.40
2023-03-13T23:14:37.704Z,10.40
2023-03-13T23:17:05.280Z,10.40
2023-03-13T23:19:35.513Z,10.40
2023-03-13T23:22:02.632Z,10.40
2023-03-13T23:24:29.866Z,10.40
2023-03-13T23:26:56.918Z,10.40
2023-03-13T23:29:24.041Z,10.40
2023-03-13T23:31:51.508Z,10.40
2023-03-13T23:34:21.965Z,10.30
2023-03-13T23:36:49.897Z,10.20
2023-03-13T23:39:16.986Z,10.10
2023-03-13T23:41:44.258Z,10.10
2023-03-13T23:44:11.347Z,10.20
2023-03-13T23:46:38.455Z,10.20
2023-03-13T23:49:05.541Z,10.10
2023-03-13T23:51:32.849Z,10.00
2023-03-13T23:54:00.848Z,10.00
2023-03-13T23:56:29.649Z,10.10
2023-03-13T23:58:56.854Z,10.10
